Terminal Aerodrome Forecast
Issued by NWS

Home | Current Version | Previous Version | Text Only | Print | Product List | Glossary On
Versions: 1 2 3 4 5 6 7 8 9 10 11 12 13 14 15 16
000
FTUS44 KCRP 291120
TAFLRD
TAF
KLRD 291120Z 2912/3012 10010KT P6SM VCSH SCT015 BKN150
      TEMPO 2912/2913 VRB15G21KT -SHRA BKN025
     FM291300 15013G20KT P6SM SCT150
     FM300700 14014KT P6SM SCT012 BKN029=

USA.gov is the U.S. government's official web portal to all federal, state and local government web resources and services.